Time;durP1;ratioP1;P1;durP2;ratioP2;P2;SDS_P1;SDS_P2;PMS_P1;PMS_P2;Temp;Humidity;BMP_temperature;BMP_pressure;BME280_temperature;BME280_humidity;BME280_pressure;Samples;Min_cycle;Max_cycle;Signal;HPM_P1;HPM_P2
2023/06/03 00:00:29;;;;;;;63.17;39.53;;;16.30;99.90;;;;;;5055143;28;20661;-69
2023/06/03 00:02:57;;;;;;;54.00;38.13;;;16.50;99.90;;;;;;5055260;28;20173;-70
2023/06/03 00:05:24;;;;;;;63.60;42.93;;;16.80;99.90;;;;;;5037006;28;20600;-69
2023/06/03 00:07:51;;;;;;;57.57;39.77;;;16.80;99.90;;;;;;5054922;28;20506;-68
2023/06/03 00:10:19;;;;;;;46.73;31.60;;;16.80;99.90;;;;;;5054491;28;20521;-70
2023/06/03 00:12:46;;;;;;;51.00;33.80;;;16.70;99.90;;;;;;5054782;28;20180;-69
2023/06/03 00:15:13;;;;;;;60.33;39.43;;;16.70;99.90;;;;;;5036551;28;20224;-69
2023/06/03 00:17:41;;;;;;;49.40;35.33;;;16.80;99.90;;;;;;5036912;28;20717;-69
2023/06/03 00:20:09;;;;;;;59.90;38.23;;;17.00;99.90;;;;;;5054572;28;20567;-69
2023/06/03 00:22:40;;;;;;;57.83;39.97;;;17.20;99.90;;;;;;5054755;28;20661;-69
2023/06/03 00:25:11;;;;;;;59.43;39.67;;;17.50;99.90;;;;;;5054482;28;20185;-69
2023/06/03 00:27:40;;;;;;;51.37;36.60;;;17.80;99.90;;;;;;5054709;28;20180;-70
2023/06/03 00:30:08;;;;;;;50.27;33.97;;;17.60;99.90;;;;;;5054443;28;20590;-71
2023/06/03 00:32:35;;;;;;;42.97;30.27;;;17.90;99.90;;;;;;5054263;28;20172;-69
2023/06/03 00:35:03;;;;;;;39.87;29.07;;;17.90;99.90;;;;;;5053904;28;20253;-69
2023/06/03 00:37:30;;;;;;;37.03;25.80;;;18.00;99.90;;;;;;5054211;28;20184;-68
2023/06/03 00:39:58;;;;;;;33.03;25.63;;;18.20;99.90;;;;;;5054195;28;20544;-69
2023/06/03 00:42:25;;;;;;;33.87;25.67;;;19.30;99.90;;;;;;5054086;28;20187;-69
2023/06/03 00:44:53;;;;;;;30.57;20.03;;;20.20;99.90;;;;;;5053817;28;20682;-69
2023/06/03 00:47:21;;;;;;;34.43;21.23;;;21.10;99.90;;;;;;5054227;28;20306;-68
2023/06/03 00:49:49;;;;;;;31.97;20.53;;;21.50;99.90;;;;;;5054176;28;20179;-69
2023/06/03 00:52:18;;;;;;;28.90;20.00;;;21.40;99.90;;;;;;5053902;28;20187;-69
2023/06/03 00:54:51;;;;;;;24.80;19.20;;;21.80;99.90;;;;;;5053650;28;20776;-69
2023/06/03 00:57:22;;;;;;;29.97;20.60;;;22.00;99.90;;;;;;5053822;28;20623;-69
2023/06/03 00:59:50;;;;;;;28.57;21.43;;;21.90;99.90;;;;;;5035822;28;20279;-69
2023/06/03 01:02:19;;;;;;;27.30;20.27;;;22.20;99.90;;;;;;5054283;28;20583;-69
2023/06/03 01:08:39;;;;;;;29.40;20.00;;;22.80;99.90;;;;;;5052891;28;20192;-69
2023/06/03 01:11:16;;;;;;;28.07;19.23;;;22.90;99.90;;;;;;5053232;28;20231;-68
2023/06/03 01:13:54;;;;;;;30.17;18.67;;;22.80;99.90;;;;;;5053500;28;20626;-68
2023/06/03 01:16:24;;;;;;;21.23;17.37;;;23.20;99.90;;;;;;5053108;28;20177;-68
2023/06/03 01:18:55;;;;;;;23.00;15.33;;;23.70;99.90;;;;;;5053104;28;20315;-68
2023/06/03 01:24:45;;;;;;;19.57;11.17;;;24.50;99.90;;;;;;5052505;28;20176;-69
2023/06/03 01:27:13;;;;;;;19.60;12.80;;;24.80;99.90;;;;;;5053842;28;20184;-69
2023/06/03 01:29:45;;;;;;;15.93;11.27;;;24.80;99.90;;;;;;5053120;28;20172;-69
2023/06/03 01:32:15;;;;;;;16.00;11.60;;;24.70;99.90;;;;;;5053116;28;20211;-69
2023/06/03 01:34:43;;;;;;;12.97;9.67;;;24.70;99.90;;;;;;5035007;28;20216;-68
2023/06/03 01:37:11;;;;;;;12.13;9.17;;;24.80;99.90;;;;;;5053085;28;20176;-68
2023/06/03 01:39:40;;;;;;;9.80;5.90;;;25.20;99.90;;;;;;5052985;28;20219;-68
2023/06/03 01:42:12;;;;;;;11.50;7.30;;;25.20;99.90;;;;;;5035037;28;20183;-67
2023/06/03 01:44:39;;;;;;;14.80;6.63;;;24.80;99.90;;;;;;5052687;28;20282;-68
2023/06/03 01:47:07;;;;;;;8.17;6.30;;;24.50;99.90;;;;;;5053025;28;20207;-68
2023/06/03 01:49:35;;;;;;;8.80;6.43;;;24.80;99.90;;;;;;5053009;28;20173;-68
2023/06/03 01:52:03;;;;;;;12.90;7.10;;;25.20;99.90;;;;;;5052911;28;20669;-69
2023/06/03 01:54:30;;;;;;;16.33;7.40;;;25.70;99.90;;;;;;5052564;28;20269;-69
2023/06/03 01:56:58;;;;;;;11.47;8.00;;;25.50;99.90;;;;;;5052628;28;20168;-69
2023/06/03 01:59:26;;;;;;;13.87;7.60;;;25.70;99.90;;;;;;5052749;28;20183;-68
2023/06/03 02:05:15;;;;;;;12.20;7.23;;;26.10;99.90;;;;;;5052115;28;20184;-69
2023/06/03 02:07:42;;;;;;;9.93;7.00;;;26.10;99.90;;;;;;5052639;28;20242;-69
2023/06/03 02:10:10;;;;;;;13.47;7.53;;;26.40;99.90;;;;;;5052672;28;20180;-68
2023/06/03 02:12:37;;;;;;;9.27;6.35;;;26.60;99.90;;;;;;5053224;28;20184;-68
2023/06/03 02:15:07;;;;;;;10.85;6.05;;;26.50;99.90;;;;;;5052474;28;20619;-68
2023/06/03 02:17:36;;;;;;;13.85;7.13;;;26.80;99.90;;;;;;5052472;28;20176;-68
2023/06/03 02:20:03;;;;;;;11.87;7.07;;;27.10;99.90;;;;;;5052376;28;20257;-68
2023/06/03 02:22:31;;;;;;;11.73;6.63;;;26.40;99.90;;;;;;5052587;28;20203;-68
2023/06/03 02:24:59;;;;;;;13.65;6.68;;;26.70;99.90;;;;;;5052247;28;20523;-68
2023/06/03 02:27:28;;;;;;;12.67;6.10;;;27.20;99.90;;;;;;5052354;28;20207;-68
2023/06/03 02:29:55;;;;;;;9.13;5.95;;;27.40;99.90;;;;;;5034450;28;20177;-68
2023/06/03 02:32:22;;;;;;;8.90;5.68;;;27.60;99.90;;;;;;5053692;28;20634;-68
2023/06/03 02:34:50;;;;;;;12.18;6.15;;;27.80;99.90;;;;;;5056274;28;20299;-69
2023/06/03 02:37:18;;;;;;;9.33;5.23;;;27.50;99.90;;;;;;5056589;28;20187;-69
2023/06/03 02:39:45;;;;;;;9.80;5.43;;;27.00;99.90;;;;;;5056427;28;20649;-71
2023/06/03 02:42:13;;;;;;;7.68;5.00;;;27.30;99.90;;;;;;5056359;28;20177;-68
2023/06/03 02:44:40;;;;;;;10.32;5.22;;;27.30;99.90;;;;;;5055778;28;20328;-68
2023/06/03 02:47:08;;;;;;;8.68;4.82;;;27.30;99.90;;;;;;5056221;28;20179;-69
2023/06/03 02:49:36;;;;;;;10.65;4.97;;;27.50;99.90;;;;;;5056128;28;20603;-69
2023/06/03 02:52:04;;;;;;;9.23;4.97;;;26.90;99.90;;;;;;5056178;28;20367;-70
2023/06/03 02:54:31;;;;;;;8.67;5.00;;;26.40;99.90;;;;;;5055808;28;20559;-69
2023/06/03 02:56:59;;;;;;;8.43;4.70;;;26.20;99.90;;;;;;5055949;28;20608;-68
2023/06/03 02:59:26;;;;;;;7.97;4.30;;;26.50;99.90;;;;;;5055958;28;20559;-69
2023/06/03 03:01:53;;;;;;;8.17;4.47;;;26.90;99.90;;;;;;5055791;28;20181;-70
2023/06/03 03:04:22;;;;;;;10.40;4.70;;;27.20;99.90;;;;;;5055702;28;20249;-68
2023/06/03 03:06:49;;;;;;;7.25;3.92;;;27.40;99.90;;;;;;5056054;28;20183;-68
2023/06/03 03:09:17;;;;;;;6.00;3.28;;;27.60;99.90;;;;;;5055998;28;20173;-69
2023/06/03 03:11:44;;;;;;;8.40;3.53;;;28.00;99.90;;;;;;5055607;28;20176;-69
2023/06/03 03:14:12;;;;;;;12.40;4.72;;;28.00;99.90;;;;;;5055788;28;20540;-69
2023/06/03 03:16:39;;;;;;;8.95;3.67;;;28.20;99.90;;;;;;5055575;28;20227;-69
2023/06/03 03:19:08;;;;;;;8.32;4.10;;;28.20;99.90;;;;;;5055630;28;20185;-68
2023/06/03 03:21:36;;;;;;;5.30;3.58;;;28.40;99.90;;;;;;5055470;28;20234;-69
2023/06/03 03:24:04;;;;;;;10.50;3.70;;;28.40;99.90;;;;;;5037582;28;20679;-68
2023/06/03 03:26:32;;;;;;;6.15;3.05;;;28.00;99.90;;;;;;5055543;28;20222;-68
2023/06/03 03:29:00;;;;;;;8.52;3.92;;;27.80;99.90;;;;;;5055611;28;20220;-69
2023/06/03 03:31:28;;;;;;;6.75;3.28;;;27.80;99.90;;;;;;5055478;28;20622;-67
2023/06/03 03:33:55;;;;;;;5.32;3.10;;;28.50;99.90;;;;;;5037924;28;20633;-68
2023/06/03 03:36:23;;;;;;;9.25;3.85;;;28.40;99.90;;;;;;5055502;28;20173;-68
2023/06/03 03:39:05;;;;;;;6.43;3.10;;;28.50;99.90;;;;;;5055729;28;20181;-68
2023/06/03 03:41:33;;;;;;;5.45;3.00;;;28.30;99.90;;;;;;5055328;28;20184;-69
2023/06/03 03:44:01;;;;;;;6.45;3.13;;;28.10;99.90;;;;;;5054563;28;20250;-69
2023/06/03 03:46:28;;;;;;;8.68;3.15;;;27.60;99.90;;;;;;5055276;28;20184;-68
2023/06/03 03:48:56;;;;;;;5.50;3.10;;;27.70;99.90;;;;;;5055161;28;20169;-68
2023/06/03 03:51:24;;;;;;;5.03;2.78;;;28.10;99.90;;;;;;5055122;28;20180;-68
2023/06/03 03:54:15;;;;;;;5.50;2.72;;;28.30;99.90;;;;;;5054866;28;20183;-67
2023/06/03 03:56:42;;;;;;;5.15;2.60;;;28.70;99.90;;;;;;5054928;28;20164;-67
2023/06/03 03:59:10;;;;;;;4.88;2.70;;;28.30;99.90;;;;;;5055106;28;20173;-67
2023/06/03 04:01:39;;;;;;;9.52;2.60;;;27.90;99.90;;;;;;5054877;28;20180;-68
2023/06/03 04:04:09;;;;;;;3.97;2.03;;;28.20;99.90;;;;;;5054918;28;20212;-68
2023/06/03 04:06:39;;;;;;;3.53;2.38;;;28.40;99.90;;;;;;5036926;28;20188;-67
2023/06/03 04:09:08;;;;;;;6.15;2.53;;;28.50;99.90;;;;;;5054769;28;20195;-67
2023/06/03 04:11:43;;;;;;;5.65;2.00;;;28.70;99.90;;;;;;5054523;28;20196;-67
2023/06/03 04:14:14;;;;;;;3.63;2.30;;;28.60;99.90;;;;;;5036803;28;20187;-69
2023/06/03 04:16:42;;;;;;;7.10;1.67;;;28.50;99.90;;;;;;5054856;28;20239;-68
2023/06/03 04:19:30;;;;;;;8.68;1.83;;;28.30;99.90;;;;;;5054471;28;20220;-68
2023/06/03 04:21:59;;;;;;;3.15;1.92;;;28.20;99.90;;;;;;5054423;28;20168;-68
2023/06/03 04:24:27;;;;;;;6.70;1.90;;;28.20;99.90;;;;;;5054456;28;20216;-69
2023/06/03 04:26:54;;;;;;;4.73;2.20;;;27.80;99.90;;;;;;5054672;28;20553;-69
2023/06/03 04:29:23;;;;;;;2.53;1.70;;;27.80;99.90;;;;;;5054607;28;20179;-68
2023/06/03 04:31:51;;;;;;;4.32;1.95;;;27.90;99.90;;;;;;5054459;28;20184;-68
2023/06/03 04:34:18;;;;;;;3.90;1.83;;;27.90;99.90;;;;;;5054404;28;20623;-68
2023/06/03 04:36:45;;;;;;;5.50;1.43;;;27.70;99.90;;;;;;5054148;28;20193;-69
2023/06/03 04:39:13;;;;;;;4.80;1.80;;;27.70;99.90;;;;;;5054224;28;20212;-69
2023/06/03 04:41:40;;;;;;;3.50;2.05;;;27.40;99.90;;;;;;5054145;28;20181;-69
2023/06/03 04:44:08;;;;;;;6.15;2.05;;;27.40;99.90;;;;;;5053900;28;20244;-69
2023/06/03 04:46:36;;;;;;;5.17;2.17;;;27.50;99.90;;;;;;5054219;28;20173;-69
2023/06/03 04:49:04;;;;;;;4.43;1.97;;;27.20;99.90;;;;;;5054114;28;20183;-68
2023/06/03 04:51:34;;;;;;;7.03;1.90;;;27.20;99.90;;;;;;5036057;28;20234;-68
2023/06/03 04:54:03;;;;;;;9.27;1.95;;;27.50;99.90;;;;;;5053765;28;20271;-69
2023/06/03 04:56:30;;;;;;;6.10;2.22;;;27.50;99.90;;;;;;5052627;28;20169;-69
2023/06/03 04:59:03;;;;;;;3.80;1.83;;;27.40;99.90;;;;;;5053806;28;20688;-69
2023/06/03 05:01:36;;;;;;;7.20;1.80;;;27.40;99.90;;;;;;5054274;28;20188;-69
2023/06/03 05:04:04;;;;;;;3.70;1.90;;;27.50;99.90;;;;;;5053786;28;20212;-69
2023/06/03 05:06:33;;;;;;;5.30;1.70;;;27.80;99.90;;;;;;5053687;28;20635;-69
2023/06/03 05:09:01;;;;;;;5.93;2.00;;;27.80;99.90;;;;;;5053676;28;20196;-69
2023/06/03 05:11:28;;;;;;;5.83;2.30;;;27.40;99.90;;;;;;5053708;28;20260;-69
2023/06/03 05:13:56;;;;;;;6.97;2.70;;;27.00;99.90;;;;;;5053627;28;20552;-69
2023/06/03 05:16:23;;;;;;;5.50;3.03;;;26.90;99.90;;;;;;5035433;28;20181;-69
2023/06/03 05:18:50;;;;;;;8.03;4.07;;;26.80;99.90;;;;;;5053457;28;20542;-69
2023/06/03 05:21:19;;;;;;;7.90;3.93;;;26.30;99.90;;;;;;5053609;28;20185;-69
2023/06/03 05:23:46;;;;;;;7.43;4.27;;;26.00;99.90;;;;;;5053337;28;20673;-69
2023/06/03 05:26:14;;;;;;;11.27;5.80;;;25.60;99.90;;;;;;5053315;28;20259;-69
2023/06/03 05:28:41;;;;;;;14.67;7.13;;;25.10;99.90;;;;;;5053297;28;20256;-68
2023/06/03 05:31:09;;;;;;;13.70;9.27;;;24.60;99.90;;;;;;5053126;28;20176;-68
2023/06/03 05:33:36;;;;;;;16.03;11.50;;;24.20;99.90;;;;;;5035235;28;20187;-69
2023/06/03 05:36:04;;;;;;;21.57;13.37;;;23.90;99.90;;;;;;5053005;28;20180;-69
2023/06/03 05:38:31;;;;;;;19.87;12.93;;;23.50;99.90;;;;;;5053254;28;20181;-69
2023/06/03 05:40:59;;;;;;;22.87;15.47;;;23.30;99.90;;;;;;5053305;28;20187;-68
2023/06/03 05:43:27;;;;;;;32.40;23.33;;;23.20;99.90;;;;;;5052743;28;20176;-72
2023/06/03 05:45:54;;;;;;;43.23;30.67;;;23.00;99.90;;;;;;5052537;28;20227;-71
2023/06/03 05:48:21;;;;;;;42.17;31.37;;;22.80;99.90;;;;;;5059303;28;20557;-71
2023/06/03 05:50:51;;;;;;;39.50;29.97;;;22.70;99.90;;;;;;5052862;28;20207;-72
2023/06/03 05:53:24;;;;;;;42.77;29.00;;;22.50;99.90;;;;;;5052980;28;20173;-73
2023/06/03 05:55:52;;;;;;;44.67;30.93;;;22.30;99.90;;;;;;5052518;28;20280;-72
2023/06/03 05:58:20;;;;;;;38.60;25.47;;;22.20;99.90;;;;;;5052369;28;20189;-71
2023/06/03 06:00:48;;;;;;;29.87;21.83;;;22.00;99.90;;;;;;5052698;28;20602;-72
2023/06/03 06:03:16;;;;;;;28.73;20.43;;;21.80;99.90;;;;;;5052284;28;20646;-72
2023/06/03 06:05:43;;;;;;;36.77;24.37;;;21.80;99.90;;;;;;5052070;28;20188;-72
2023/06/03 06:08:10;;;;;;;38.23;25.43;;;21.60;99.90;;;;;;5051951;28;20185;-72
2023/06/03 06:10:38;;;;;;;38.83;28.13;;;21.30;99.90;;;;;;5052545;28;20640;-72
2023/06/03 06:13:05;;;;;;;39.67;28.27;;;21.20;99.90;;;;;;5062529;28;20184;-72
2023/06/03 06:15:32;;;;;;;46.47;33.37;;;21.00;99.90;;;;;;5072305;28;20634;-71
2023/06/03 06:18:00;;;;;;;55.87;39.67;;;20.90;99.90;;;;;;5054546;28;20310;-71
2023/06/03 06:20:27;;;;;;;47.57;36.47;;;20.80;99.90;;;;;;5059329;28;20682;-72
2023/06/03 06:22:55;;;;;;;47.30;35.43;;;20.60;99.90;;;;;;5052634;28;20181;-73
2023/06/03 06:25:23;;;;;;;52.67;35.43;;;20.60;99.90;;;;;;5051990;28;20302;-72
2023/06/03 06:27:50;;;;;;;43.27;33.93;;;20.50;99.90;;;;;;5052606;28;20179;-73
2023/06/03 06:30:19;;;;;;;42.70;33.30;;;20.40;99.90;;;;;;5052092;28;20176;-72
2023/06/03 06:32:51;;;;;;;43.63;31.10;;;20.30;99.90;;;;;;5060793;28;20534;-69
2023/06/03 06:35:19;;;;;;;45.33;30.83;;;20.30;99.90;;;;;;5052144;28;20261;-68
2023/06/03 06:37:47;;;;;;;39.97;26.47;;;20.20;99.90;;;;;;5051108;28;20512;-68
2023/06/03 06:40:19;;;;;;;25.20;17.60;;;20.10;99.90;;;;;;5052450;28;20187;-68
2023/06/03 06:42:47;;;;;;;16.47;12.33;;;20.10;99.90;;;;;;5052357;28;20256;-69
2023/06/03 06:45:23;;;;;;;13.73;9.20;;;20.10;99.90;;;;;;5052170;28;20664;-68
2023/06/03 06:47:56;;;;;;;15.40;7.10;;;20.00;99.90;;;;;;5052303;28;20635;-68
2023/06/03 06:50:42;;;;;;;11.90;6.53;;;19.90;99.90;;;;;;5052126;28;20194;-69
2023/06/03 06:53:09;;;;;;;13.27;5.27;;;19.90;99.90;;;;;;5045801;28;20186;-69
2023/06/03 06:55:54;;;;;;;8.37;5.70;;;19.80;99.90;;;;;;5034069;28;20596;-68
2023/06/03 06:58:23;;;;;;;6.63;3.27;;;19.80;99.90;;;;;;5052293;28;20589;-69
2023/06/03 07:00:50;;;;;;;5.93;3.40;;;19.70;99.90;;;;;;5052243;28;20168;-69
2023/06/03 07:03:19;;;;;;;10.67;2.83;;;19.60;99.90;;;;;;5051933;28;20271;-73
2023/06/03 07:05:52;;;;;;;5.10;3.03;;;19.50;99.90;;;;;;5050843;28;20192;-73
2023/06/03 07:08:23;;;;;;;7.43;4.40;;;19.50;99.90;;;;;;5051454;28;20234;-72
2023/06/03 07:10:52;;;;;;;12.27;5.63;;;19.50;99.90;;;;;;5051516;28;20752;-69
2023/06/03 07:13:19;;;;;;;20.03;9.70;;;19.40;99.90;;;;;;5051675;28;20204;-70
2023/06/03 07:15:46;;;;;;;16.00;9.60;;;19.40;99.90;;;;;;5051716;28;20187;-68
2023/06/03 07:18:14;;;;;;;13.30;9.80;;;19.40;99.90;;;;;;5052203;28;20171;-69
2023/06/03 07:20:43;;;;;;;16.03;10.97;;;19.40;99.90;;;;;;5055477;28;20265;-69
2023/06/03 07:23:12;;;;;;;17.87;10.27;;;19.40;99.90;;;;;;5056187;28;20179;-69
2023/06/03 07:25:44;;;;;;;14.50;8.10;;;19.40;99.90;;;;;;5055366;28;20596;-68
2023/06/03 07:28:13;;;;;;;13.20;8.07;;;19.30;99.90;;;;;;5055714;28;20176;-70
2023/06/03 07:30:42;;;;;;;7.03;4.47;;;19.20;99.90;;;;;;5055755;28;20267;-70
2023/06/03 07:33:29;;;;;;;7.03;4.30;;;19.30;99.90;;;;;;5054860;28;20174;-69
2023/06/03 07:36:00;;;;;;;8.07;4.17;;;19.30;99.90;;;;;;5064041;28;20319;-71
2023/06/03 07:39:02;;;;;;;6.23;3.33;;;19.30;99.90;;;;;;5068016;28;20259;-74
2023/06/03 07:41:51;;;;;;;6.23;2.90;;;19.20;99.90;;;;;;5067983;28;20243;-70
2023/06/03 07:44:44;;;;;;;11.07;3.30;;;19.20;99.90;;;;;;5033799;28;20277;-70
2023/06/03 07:47:17;;;;;;;4.37;2.40;;;19.20;99.90;;;;;;5026556;28;20185;-74
2023/06/03 07:49:48;;;;;;;3.47;2.37;;;19.20;99.90;;;;;;5035011;28;20181;-73
2023/06/03 07:52:21;;;;;;;5.13;2.40;;;19.20;99.90;;;;;;5038043;28;20204;-70
2023/06/03 07:54:49;;;;;;;5.23;2.00;;;19.20;99.90;;;;;;5054691;28;20172;-70
2023/06/03 07:57:17;;;;;;;8.97;2.63;;;19.20;99.90;;;;;;5054730;28;20247;-70
2023/06/03 07:59:56;;;;;;;3.20;2.00;;;19.10;99.90;;;;;;5054439;28;20194;-71
2023/06/03 08:02:23;;;;;;;3.83;2.00;;;19.20;99.90;;;;;;5054340;28;20240;-70
2023/06/03 08:04:53;;;;;;;4.67;2.23;;;19.10;99.90;;;;;;5036655;28;20697;-69
2023/06/03 08:07:22;;;;;;;4.97;1.97;;;19.10;99.90;;;;;;5054643;28;20188;-69
2023/06/03 08:09:50;;;;;;;4.97;2.27;;;19.10;99.90;;;;;;5053589;28;20220;-72
2023/06/03 08:12:24;;;;;;;6.80;2.73;;;19.20;99.90;;;;;;5046237;28;20264;-72
2023/06/03 08:14:51;;;;;;;8.20;2.37;;;19.10;99.90;;;;;;5053954;28;20255;-73
2023/06/03 08:17:31;;;;;;;6.73;2.73;;;19.10;99.90;;;;;;5054062;28;20203;-73
2023/06/03 08:19:58;;;;;;;6.83;2.90;;;19.10;99.90;;;;;;5054677;28;20627;-74
2023/06/03 08:22:27;;;;;;;5.30;2.77;;;19.10;99.90;;;;;;5054236;28;20179;-73
2023/06/03 08:24:56;;;;;;;6.70;2.83;;;19.10;99.90;;;;;;5054026;28;20227;-73
2023/06/03 08:27:23;;;;;;;9.90;3.10;;;19.10;99.90;;;;;;5054209;28;20182;-73
2023/06/03 08:29:52;;;;;;;9.57;3.60;;;19.10;99.90;;;;;;5053796;28;20665;-73
2023/06/03 08:32:19;;;;;;;16.13;3.47;;;19.00;99.90;;;;;;5053791;28;20172;-73
2023/06/03 08:34:47;;;;;;;11.83;3.13;;;18.90;99.90;;;;;;5053688;28;20184;-73
2023/06/03 08:37:14;;;;;;;5.80;3.80;;;18.90;99.90;;;;;;5053476;28;20176;-73
2023/06/03 08:39:42;;;;;;;9.70;3.50;;;18.90;99.90;;;;;;5054099;28;20188;-73
2023/06/03 08:42:12;;;;;;;5.80;3.50;;;18.80;99.90;;;;;;5053224;28;20332;-73
2023/06/03 08:44:54;;;;;;;14.50;4.67;;;18.80;99.90;;;;;;5052900;28;20239;-72
2023/06/03 08:47:48;;;;;;;10.80;4.10;;;18.70;99.90;;;;;;5053791;28;20211;-70
2023/06/03 08:50:20;;;;;;;7.23;4.20;;;18.70;99.90;;;;;;5053731;28;20231;-73
2023/06/03 08:52:51;;;;;;;10.27;4.17;;;18.60;99.90;;;;;;5035974;28;20274;-72
2023/06/03 08:55:20;;;;;;;13.43;5.20;;;18.50;99.90;;;;;;5053468;28;20194;-73
2023/06/03 08:58:04;;;;;;;9.33;4.50;;;18.50;99.90;;;;;;5052944;28;20657;-73
2023/06/03 09:00:33;;;;;;;8.07;4.67;;;18.50;99.90;;;;;;5051798;28;20620;-72
2023/06/03 09:03:01;;;;;;;11.03;4.40;;;18.50;99.90;;;;;;5053414;28;20577;-73
2023/06/03 09:05:29;;;;;;;13.03;4.93;;;18.40;99.90;;;;;;5053048;28;20252;-73
2023/06/03 09:07:58;;;;;;;11.00;4.17;;;18.40;99.90;;;;;;5052855;28;20181;-73
2023/06/03 09:10:26;;;;;;;10.27;4.80;;;18.40;99.90;;;;;;5053304;28;20184;-73
2023/06/03 09:12:58;;;;;;;10.70;4.67;;;18.30;99.90;;;;;;5053413;28;20169;-72
2023/06/03 09:15:27;;;;;;;8.87;4.03;;;18.30;99.90;;;;;;5052718;28;20259;-76
2023/06/03 09:17:55;;;;;;;12.73;4.17;;;18.20;99.90;;;;;;5035054;28;20496;-73
2023/06/03 09:20:24;;;;;;;12.73;3.67;;;18.20;99.90;;;;;;5053135;28;20203;-73
2023/06/03 09:22:51;;;;;;;8.00;4.00;;;18.20;99.90;;;;;;5052981;28;20173;-71
2023/06/03 09:25:19;;;;;;;11.47;4.73;;;18.20;99.90;;;;;;5052384;28;20219;-71
2023/06/03 09:27:46;;;;;;;10.03;4.13;;;18.10;99.90;;;;;;5032840;28;20173;-71
2023/06/03 09:30:14;;;;;;;9.33;4.40;;;18.10;99.90;;;;;;5039516;28;20211;-72
2023/06/03 09:32:42;;;;;;;9.23;3.83;;;18.10;99.90;;;;;;5052264;28;20210;-74
2023/06/03 09:35:10;;;;;;;11.27;3.77;;;18.20;99.90;;;;;;5052252;28;20177;-73
2023/06/03 09:37:37;;;;;;;10.53;3.80;;;18.10;99.90;;;;;;5052809;28;20177;-72
2023/06/03 09:40:09;;;;;;;11.33;4.13;;;18.20;99.90;;;;;;5052656;28;20235;-73
2023/06/03 09:42:46;;;;;;;7.90;3.33;;;18.20;99.90;;;;;;5051867;28;20180;-72
2023/06/03 09:45:42;;;;;;;10.47;3.87;;;18.20;99.90;;;;;;5052395;28;20285;-72
2023/06/03 09:48:10;;;;;;;12.20;3.70;;;18.20;99.90;;;;;;5046126;28;20184;-72
2023/06/03 09:50:51;;;;;;;12.80;3.60;;;18.20;99.90;;;;;;5036183;28;20183;-73
2023/06/03 09:53:19;;;;;;;10.43;3.53;;;18.20;99.90;;;;;;5052462;28;20231;-71
2023/06/03 09:55:47;;;;;;;8.37;3.20;;;18.20;99.90;;;;;;5052140;28;20534;-72
2023/06/03 09:58:14;;;;;;;13.13;5.30;;;18.20;99.90;;;;;;5055802;28;20180;-71
2023/06/03 10:00:49;;;;;;;18.13;7.97;;;18.20;99.90;;;;;;5034276;28;21163;-72
2023/06/03 10:03:20;;;;;;;13.37;8.70;;;18.20;99.90;;;;;;5052398;28;20172;-71
2023/06/03 10:05:47;;;;;;;15.93;5.10;;;18.20;99.90;;;;;;5051927;28;20272;-73
2023/06/03 10:08:15;;;;;;;10.90;4.47;;;18.20;99.90;;;;;;5052078;28;20627;-74
2023/06/03 10:10:59;;;;;;;10.20;3.50;;;18.20;99.90;;;;;;5052497;28;20186;-74
2023/06/03 10:13:27;;;;;;;14.60;3.97;;;18.20;99.90;;;;;;5034283;28;20272;-73
2023/06/03 10:15:58;;;;;;;10.60;4.03;;;18.20;99.90;;;;;;5052164;28;20207;-73
2023/06/03 10:18:39;;;;;;;13.17;4.30;;;18.20;99.90;;;;;;5052225;28;20180;-70
2023/06/03 10:21:13;;;;;;;12.03;4.30;;;18.10;99.90;;;;;;5052125;28;20181;-74
2023/06/03 10:23:45;;;;;;;15.60;4.37;;;18.10;99.90;;;;;;5052359;28;20636;-73
2023/06/03 10:26:12;;;;;;;16.07;4.90;;;18.10;99.90;;;;;;5052008;28;20233;-73
2023/06/03 10:28:40;;;;;;;11.27;4.53;;;18.10;99.90;;;;;;5052107;28;20543;-74
2023/06/03 10:31:08;;;;;;;13.13;4.40;;;18.10;99.90;;;;;;5051625;28;20185;-73
2023/06/03 10:33:40;;;;;;;8.60;4.00;;;18.10;99.90;;;;;;5052132;28;20256;-72
2023/06/03 10:36:09;;;;;;;11.47;4.50;;;18.20;99.90;;;;;;5052106;28;20176;-72
2023/06/03 10:38:39;;;;;;;12.40;4.40;;;18.20;99.90;;;;;;5052052;28;20637;-72
2023/06/03 10:41:08;;;;;;;10.37;4.37;;;18.20;99.90;;;;;;5052079;28;20212;-72
2023/06/03 10:43:37;;;;;;;12.13;4.60;;;18.20;99.90;;;;;;5051875;28;20184;-72
2023/06/03 10:46:05;;;;;;;11.80;3.77;;;18.20;99.90;;;;;;5033158;28;20249;-73
2023/06/03 10:48:36;;;;;;;10.30;3.50;;;18.30;99.90;;;;;;5051836;28;20222;-73
2023/06/03 10:51:27;;;;;;;10.50;4.37;;;18.30;99.90;;;;;;5051887;28;20179;-72
2023/06/03 10:53:54;;;;;;;14.00;4.63;;;18.30;99.90;;;;;;5053716;28;20641;-72
2023/06/03 10:56:51;;;;;;;13.30;4.10;;;18.30;99.90;;;;;;5037814;28;20642;-73
2023/06/03 10:59:23;;;;;;;12.37;4.10;;;18.30;99.90;;;;;;5043088;28;20193;-71
2023/06/03 11:02:01;;;;;;;13.23;4.30;;;18.30;99.90;;;;;;5055790;28;20227;-73
2023/06/03 11:04:30;;;;;;;14.03;4.63;;;18.30;99.90;;;;;;5055757;28;20633;-73
2023/06/03 11:06:58;;;;;;;12.10;3.73;;;18.20;99.90;;;;;;5055415;28;20176;-74
2023/06/03 11:09:39;;;;;;;17.20;4.17;;;18.30;99.90;;;;;;5054545;28;20226;-74
2023/06/03 11:12:13;;;;;;;10.80;3.70;;;18.20;99.90;;;;;;5037823;28;20550;-72
2023/06/03 11:14:41;;;;;;;18.80;4.27;;;18.20;99.90;;;;;;5055359;28;20590;-74
2023/06/03 11:17:10;;;;;;;14.90;4.90;;;18.30;99.90;;;;;;5055678;28;20523;-74
2023/06/03 11:19:45;;;;;;;12.17;3.73;;;18.30;99.90;;;;;;5055571;28;20179;-73
2023/06/03 11:22:28;;;;;;;13.13;4.20;;;18.30;99.90;;;;;;5055269;28;20276;-75
2023/06/03 11:25:02;;;;;;;16.37;4.13;;;18.40;99.90;;;;;;5037375;28;20218;-73
2023/06/03 11:27:30;;;;;;;8.63;3.63;;;18.30;99.90;;;;;;5055124;28;20258;-73
2023/06/03 11:30:00;;;;;;;10.90;3.77;;;18.30;99.90;;;;;;5055302;28;20179;-72
2023/06/03 11:32:37;;;;;;;17.47;4.23;;;18.30;99.90;;;;;;5036982;28;20664;-71
2023/06/03 11:35:04;;;;;;;11.13;3.50;;;18.30;99.90;;;;;;5055075;28;20181;-74
2023/06/03 11:37:46;;;;;;;12.63;3.80;;;18.30;99.90;;;;;;5054999;28;20204;-73
2023/06/03 11:40:19;;;;;;;15.93;4.03;;;18.30;99.90;;;;;;5055398;28;20189;-73
2023/06/03 11:42:46;;;;;;;13.00;3.80;;;18.30;99.90;;;;;;5054904;28;20526;-73
2023/06/03 11:45:27;;;;;;;16.43;4.03;;;18.30;99.90;;;;;;5054707;28;20290;-72
2023/06/03 11:48:15;;;;;;;13.13;4.50;;;18.30;99.90;;;;;;5054648;28;20178;-73
2023/06/03 11:50:57;;;;;;;10.00;3.40;;;18.20;99.90;;;;;;5055102;28;20176;-73
2023/06/03 11:53:35;;;;;;;13.10;3.43;;;18.20;99.90;;;;;;5054647;28;20584;-74
2023/06/03 11:56:08;;;;;;;11.80;2.67;;;18.30;99.90;;;;;;5036472;28;20179;-72
2023/06/03 11:58:42;;;;;;;15.37;3.27;;;18.30;99.90;;;;;;5054845;28;20215;-72
2023/06/03 12:01:17;;;;;;;17.33;2.87;;;18.30;99.90;;;;;;5054448;28;20195;-74
2023/06/03 12:04:03;;;;;;;9.37;2.63;;;18.30;99.90;;;;;;5054556;28;20192;-72
2023/06/03 12:06:37;;;;;;;10.60;2.80;;;18.30;99.90;;;;;;5053786;28;20180;-73
2023/06/03 12:09:05;;;;;;;14.53;3.07;;;18.30;99.90;;;;;;5054504;28;20726;-73
2023/06/03 12:11:37;;;;;;;11.90;3.37;;;18.20;99.90;;;;;;5054228;28;20259;-74
2023/06/03 12:14:05;;;;;;;16.13;3.33;;;18.20;99.90;;;;;;5054849;28;20171;-74
2023/06/03 12:16:36;;;;;;;10.83;2.80;;;18.20;99.90;;;;;;5053439;28;20189;-73
2023/06/03 12:19:05;;;;;;;11.43;2.80;;;18.20;99.90;;;;;;5054093;28;20546;-72
2023/06/03 12:21:34;;;;;;;11.40;2.97;;;18.10;99.90;;;;;;5054083;28;20177;-74
2023/06/03 12:24:12;;;;;;;12.83;2.90;;;18.10;99.90;;;;;;5054298;28;20204;-74
2023/06/03 12:26:41;;;;;;;10.87;2.87;;;18.10;99.90;;;;;;5054089;28;20310;-71
2023/06/03 12:29:10;;;;;;;11.33;2.70;;;18.10;99.90;;;;;;5051273;28;20177;-70
2023/06/03 12:31:38;;;;;;;8.33;2.60;;;18.10;99.90;;;;;;5035462;28;20176;-74
2023/06/03 12:34:05;;;;;;;11.23;3.97;;;18.10;99.90;;;;;;5053650;28;20234;-72
2023/06/03 12:36:49;;;;;;;11.20;3.13;;;18.10;99.90;;;;;;5052977;28;20237;-73
2023/06/03 12:39:18;;;;;;;14.30;3.07;;;18.10;99.90;;;;;;5032873;28;20557;-73
2023/06/03 12:41:52;;;;;;;12.67;3.20;;;18.00;99.90;;;;;;5034484;28;20176;-72
2023/06/03 12:44:20;;;;;;;10.97;3.40;;;18.00;99.90;;;;;;5030396;28;20287;-73
2023/06/03 12:47:04;;;;;;;11.27;2.83;;;18.00;99.90;;;;;;5035477;28;20669;-72
2023/06/03 12:49:32;;;;;;;11.33;3.20;;;18.00;99.90;;;;;;5041939;28;20230;-73
2023/06/03 12:52:18;;;;;;;7.70;2.53;;;18.00;99.90;;;;;;5053502;28;20658;-68
2023/06/03 12:54:53;;;;;;;12.30;2.80;;;18.00;99.90;;;;;;5052234;28;20208;-73
2023/06/03 12:57:21;;;;;;;12.40;3.47;;;18.10;99.90;;;;;;5072976;28;20541;-74
2023/06/03 13:00:15;;;;;;;20.20;3.40;;;18.00;99.90;;;;;;5062981;28;20657;-73
2023/06/03 13:02:44;;;;;;;10.80;3.13;;;18.00;99.90;;;;;;5053444;28;20259;-73
2023/06/03 13:05:14;;;;;;;11.57;2.60;;;18.00;99.90;;;;;;5034521;28;20228;-74